Boston, Massachusetts
Traffic Map
Current Weather Conditions
Boston, Massachusetts
Few Clouds
Few Clouds
36°
Feels Like: 32°
Wind Chill: 32° Ceiling: Unl
Heat Index: 36° Visibility: 10mi
Dew Point: 15° Wind: 5mph
Humidity: 43% Direction: 120° (ESE)
Pressure: 30.06in Gusts: 0mph
Raw Report DataKBOS 111754Z 12004KT 10SM FEW050 FEW200 02/M09 A3006 RMK AO2 SLP177 T00221094 10022 21044 58034
Traffic Incident Summary
Active as of:
Severity:
Category:
InformationThere was an issue retrieving the traffic information for this location. Please try a different location or try again shortly.
Advertisements